createdAt,value
2022-09-17T00:00:25.680Z,98.50
2022-09-17T00:01:01.935Z,98.50
2022-09-17T00:01:34.597Z,98.70
2022-09-17T00:02:07.413Z,98.40
2022-09-17T00:02:42.146Z,98.40
2022-09-17T00:03:15.117Z,98.50
2022-09-17T00:03:50.889Z,98.50
2022-09-17T00:04:24.623Z,98.60
2022-09-17T00:04:57.566Z,98.60
2022-09-17T00:05:30.183Z,98.60
2022-09-17T00:06:05.710Z,98.60
2022-09-17T00:06:38.278Z,98.60
2022-09-17T00:07:10.800Z,98.60
2022-09-17T00:07:44.365Z,98.60
2022-09-17T00:08:16.932Z,98.60
2022-09-17T00:08:51.314Z,98.60
2022-09-17T00:09:24.853Z,98.60
2022-09-17T00:09:57.372Z,98.60
2022-09-17T00:10:29.891Z,98.60
2022-09-17T00:11:08.779Z,98.50
2022-09-17T00:11:43.069Z,98.40
2022-09-17T00:12:15.686Z,98.40
2022-09-17T00:12:49.623Z,98.30
2022-09-17T00:13:22.263Z,98.30
2022-09-17T00:13:56.096Z,98.20
2022-09-17T00:14:29.746Z,98.20
2022-09-17T00:15:02.287Z,98.20
2022-09-17T00:15:41.325Z,98.30
2022-09-17T00:16:22.509Z,98.30
2022-09-17T00:16:57.695Z,98.30
2022-09-17T00:17:33.796Z,98.20
2022-09-17T00:18:07.497Z,98.20
2022-09-17T00:18:41.935Z,98.20
2022-09-17T00:19:17.213Z,98.20
2022-09-17T00:19:50.107Z,98.30
2022-09-17T00:20:22.704Z,98.30
2022-09-17T00:20:55.308Z,98.30
2022-09-17T00:21:29.519Z,98.30
2022-09-17T00:22:02.086Z,98.40
2022-09-17T00:22:34.679Z,98.40
2022-09-17T00:23:08.725Z,98.40
2022-09-17T00:23:41.232Z,98.40
2022-09-17T00:24:16.590Z,98.50
2022-09-17T00:24:50.269Z,98.50
2022-09-17T00:25:23.203Z,98.50
2022-09-17T00:25:55.861Z,98.50
2022-09-17T00:26:29.495Z,98.50
2022-09-17T00:27:03.146Z,98.50
2022-09-17T00:27:35.722Z,98.50
2022-09-17T00:28:08.418Z,98.50
2022-09-17T00:28:45.456Z,98.50
2022-09-17T00:29:18.309Z,98.50
2022-09-17T00:29:50.906Z,98.50
2022-09-17T00:30:24.455Z,98.50
2022-09-17T00:30:57.064Z,98.50
2022-09-17T00:31:30.776Z,98.40
2022-09-17T00:32:04.397Z,98.40
2022-09-17T00:32:36.875Z,98.40
2022-09-17T00:33:11.702Z,98.50
2022-09-17T00:33:45.372Z,98.50
2022-09-17T00:34:18.091Z,98.50
2022-09-17T00:34:52.293Z,98.60
2022-09-17T00:35:26.054Z,98.60
2022-09-17T00:35:59.720Z,98.60
2022-09-17T00:36:34.264Z,98.60
2022-09-17T00:37:07.817Z,98.60
2022-09-17T00:37:40.368Z,98.60
2022-09-17T00:38:13.067Z,98.60
2022-09-17T00:38:49.339Z,98.60
2022-09-17T00:39:23.435Z,98.60
2022-09-17T00:39:56.049Z,98.60
2022-09-17T00:40:29.845Z,98.60
2022-09-17T00:41:03.758Z,98.50
2022-09-17T00:41:38.491Z,98.50
2022-09-17T00:42:12.192Z,98.50
2022-09-17T00:42:45.483Z,98.50
2022-09-17T00:43:37.240Z,98.50
2022-09-17T00:44:42.721Z,98.50
2022-09-17T00:45:16.385Z,98.50
2022-09-17T00:45:49.524Z,98.50
2022-09-17T00:46:30.667Z,98.50
2022-09-17T00:47:04.646Z,98.40
2022-09-17T00:47:41.740Z,98.30
2022-09-17T00:48:15.310Z,98.30
2022-09-17T01:34:34.689Z,98.10
2022-09-17T01:35:15.933Z,98.20
2022-09-17T01:35:56.663Z,98.30
2022-09-17T01:36:45.570Z,98.20
2022-09-17T01:37:30.080Z,98.20
2022-09-17T01:38:10.157Z,98.20
2022-09-17T01:38:49.515Z,98.20
2022-09-17T01:39:32.967Z,98.20
2022-09-17T01:40:12.791Z,98.20
2022-09-17T01:40:52.753Z,98.20
2022-09-17T01:41:34.506Z,98.10
2022-09-17T01:42:15.319Z,98.10
2022-09-17T01:42:54.326Z,98.10
2022-09-17T01:43:34.409Z,98.10
2022-09-17T01:44:12.130Z,98.20
2022-09-17T01:44:52.452Z,98.20
2022-09-17T01:45:30.338Z,98.20
2022-09-17T01:46:13.954Z,98.20
2022-09-17T01:46:51.784Z,98.20
2022-09-17T01:47:29.225Z,98.20
2022-09-17T01:48:07.907Z,98.20
2022-09-17T01:48:44.519Z,98.30
2022-09-17T01:49:21.955Z,98.30
2022-09-17T01:50:00.528Z,98.30
2022-09-17T01:50:40.952Z,98.40
2022-09-17T01:51:18.398Z,98.40
2022-09-17T01:51:51.964Z,98.40
2022-09-17T01:52:28.031Z,98.40
2022-09-17T01:53:03.194Z,98.50
2022-09-17T01:53:41.456Z,98.70
2022-09-17T01:54:20.419Z,98.50
2022-09-17T01:54:58.759Z,98.50
2022-09-17T01:55:35.933Z,98.50
2022-09-17T01:56:12.344Z,98.50
2022-09-17T01:56:51.779Z,98.50
2022-09-17T01:57:29.596Z,98.50
2022-09-17T01:58:08.519Z,98.50
2022-09-17T01:58:46.277Z,98.50
2022-09-17T01:59:24.045Z,98.60
2022-09-17T02:00:02.462Z,98.60
2022-09-17T02:00:50.975Z,98.50
2022-09-17T02:01:26.519Z,98.50
2022-09-17T02:02:07.441Z,98.50
2022-09-17T02:02:43.541Z,98.50
2022-09-17T02:03:20.592Z,98.50
2022-09-17T02:04:00.455Z,98.50
2022-09-17T02:04:37.655Z,98.50
2022-09-17T02:05:14.779Z,98.40
2022-09-17T02:05:55.649Z,98.40
2022-09-17T02:06:34.841Z,98.40
2022-09-17T02:07:14.468Z,98.60
2022-09-17T02:07:53.714Z,98.40
2022-09-17T02:08:31.157Z,98.40
2022-09-17T02:09:10.747Z,98.50
2022-09-17T02:09:51.142Z,98.40
2022-09-17T02:10:29.720Z,98.40
2022-09-17T02:11:15.336Z,98.40
2022-09-17T02:11:52.645Z,98.30
2022-09-17T02:12:31.678Z,98.30
2022-09-17T02:13:09.511Z,98.20
2022-09-17T02:13:47.501Z,98.20
2022-09-17T02:14:25.129Z,98.20
2022-09-17T02:15:01.797Z,98.30
2022-09-17T02:15:40.138Z,98.30
2022-09-17T02:16:17.153Z,98.30
2022-09-17T02:16:56.699Z,98.30
2022-09-17T02:17:34.631Z,98.30
2022-09-17T02:18:12.533Z,98.20
2022-09-17T02:18:50.870Z,98.20
2022-09-17T02:19:27.624Z,98.20
2022-09-17T02:20:02.324Z,98.20
2022-09-17T02:20:41.150Z,98.20
2022-09-17T02:21:19.997Z,98.20
2022-09-17T02:22:04.181Z,98.20
2022-09-17T02:22:42.412Z,98.20
2022-09-17T02:23:19.125Z,98.20
2022-09-17T02:23:59.412Z,98.20
2022-09-17T02:24:34.229Z,98.20
2022-09-17T02:25:16.119Z,98.20
2022-09-17T02:25:53.709Z,98.20
2022-09-17T02:26:28.101Z,98.20
2022-09-17T02:27:06.849Z,98.20
2022-09-17T02:27:48.393Z,98.30
2022-09-17T02:28:27.683Z,98.30
2022-09-17T02:29:07.859Z,98.30
2022-09-17T02:29:42.581Z,98.30
2022-09-17T02:30:17.068Z,98.30
2022-09-17T02:30:50.649Z,98.30
2022-09-17T02:31:24.422Z,98.30
2022-09-17T02:31:58.571Z,98.30
2022-09-17T02:32:31.103Z,98.20
2022-09-17T02:33:08.746Z,98.20
2022-09-17T02:33:44.547Z,98.20
2022-09-17T02:34:18.130Z,98.20
2022-09-17T02:34:51.798Z,98.20
2022-09-17T02:35:24.469Z,98.20
2022-09-17T02:35:57.143Z,98.30
2022-09-17T02:36:32.595Z,98.30
2022-09-17T02:37:05.861Z,98.40
2022-09-17T02:37:38.417Z,98.40
2022-09-17T02:38:12.088Z,98.40
2022-09-17T02:38:45.696Z,98.40
2022-09-17T02:39:18.306Z,98.40
2022-09-17T02:39:52.076Z,98.40
2022-09-17T02:40:28.243Z,98.40
2022-09-17T02:41:12.384Z,98.70
2022-09-17T02:41:53.362Z,98.50
2022-09-17T02:42:36.003Z,98.40
2022-09-17T02:43:20.943Z,98.40
2022-09-17T02:44:03.941Z,98.40
2022-09-17T02:44:42.744Z,98.40
2022-09-17T02:45:28.605Z,98.30
2022-09-17T02:46:14.692Z,98.40
2022-09-17T02:47:06.230Z,98.30
2022-09-17T02:48:11.038Z,98.30
2022-09-17T02:49:02.565Z,98.30
2022-09-17T02:49:50.523Z,98.20
2022-09-17T02:50:33.831Z,98.10
2022-09-17T02:51:21.691Z,98.10
2022-09-17T02:52:06.300Z,98.00
2022-09-17T02:52:49.230Z,98.00
2022-09-17T02:53:35.630Z,98.00
2022-09-17T02:54:18.181Z,98.00
2022-09-17T02:55:01.342Z,97.90
2022-09-17T02:55:42.178Z,97.90
2022-09-17T02:56:20.749Z,97.90
2022-09-17T02:57:05.454Z,97.80
2022-09-17T02:57:42.642Z,98.10
2022-09-17T02:58:23.088Z,97.90
2022-09-17T02:59:03.305Z,97.90
2022-09-17T02:59:42.620Z,97.90
2022-09-17T03:00:19.393Z,97.90
2022-09-17T03:01:04.716Z,98.00
2022-09-17T03:01:43.999Z,98.00
2022-09-17T03:02:23.045Z,98.00
2022-09-17T03:03:01.150Z,98.10
2022-09-17T03:03:38.090Z,98.10
2022-09-17T03:04:16.211Z,98.20
2022-09-17T03:04:50.438Z,98.20
2022-09-17T03:05:25.106Z,98.20
2022-09-17T03:05:59.278Z,98.20
2022-09-17T03:06:32.479Z,98.20
2022-09-17T03:07:08.091Z,98.20
2022-09-17T03:07:42.154Z,98.20
2022-09-17T03:08:18.563Z,98.20
2022-09-17T03:08:52.305Z,98.20
2022-09-17T03:09:25.880Z,98.20
2022-09-17T03:09:58.386Z,98.20
2022-09-17T03:10:33.731Z,98.20
2022-09-17T03:11:09.242Z,98.30
2022-09-17T03:11:42.234Z,98.30
2022-09-17T03:12:16.183Z,98.30
2022-09-17T03:12:48.987Z,98.30
2022-09-17T03:13:21.532Z,98.30
2022-09-17T03:13:55.362Z,98.30
2022-09-17T03:14:27.871Z,98.30
2022-09-17T03:15:00.993Z,98.40
2022-09-17T03:15:34.721Z,98.40
2022-09-17T03:16:08.118Z,98.40
2022-09-17T03:16:40.624Z,98.40
2022-09-17T03:17:15.007Z,98.40
2022-09-17T03:17:53.127Z,98.40
2022-09-17T03:18:25.995Z,98.40
2022-09-17T03:18:59.559Z,98.40
2022-09-17T03:19:32.158Z,98.40
2022-09-17T03:20:05.223Z,98.40
2022-09-17T03:20:38.805Z,98.50
2022-09-17T03:21:12.590Z,98.50
2022-09-17T03:21:45.274Z,98.50
2022-09-17T03:22:18.866Z,98.40
2022-09-17T03:22:52.901Z,98.40
2022-09-17T03:23:26.134Z,98.40
2022-09-17T03:24:00.424Z,98.40
2022-09-17T03:24:32.960Z,98.40
2022-09-17T03:25:07.359Z,98.50
2022-09-17T03:25:39.883Z,98.50
2022-09-17T03:26:12.480Z,98.50
2022-09-17T03:26:44.994Z,98.50
2022-09-17T03:27:18.548Z,98.50
2022-09-17T03:27:52.482Z,98.50
2022-09-17T03:28:26.598Z,98.50
2022-09-17T03:29:00.248Z,98.50
2022-09-17T03:29:32.879Z,98.50
2022-09-17T03:30:07.530Z,98.40
2022-09-17T03:30:40.166Z,98.40
2022-09-17T03:31:12.720Z,98.40
2022-09-17T03:31:46.449Z,98.40
2022-09-17T03:32:22.375Z,98.40
2022-09-17T03:32:56.702Z,98.30
2022-09-17T03:33:30.317Z,98.20
2022-09-17T03:34:02.885Z,98.20
2022-09-17T03:34:35.439Z,98.20
2022-09-17T03:35:09.658Z,98.30
2022-09-17T03:35:43.521Z,98.30
2022-09-17T03:36:17.106Z,98.40
2022-09-17T03:36:49.688Z,98.40
2022-09-17T03:37:24.766Z,98.40
2022-09-17T03:37:59.039Z,98.40
2022-09-17T03:38:34.254Z,98.40
2022-09-17T03:39:07.128Z,98.40
2022-09-17T03:39:40.757Z,98.40
2022-09-17T03:40:13.394Z,98.40
2022-09-17T03:40:57.563Z,98.40
2022-09-17T03:41:30.011Z,98.40
2022-09-17T03:42:02.626Z,98.30
2022-09-17T03:42:36.184Z,98.30
2022-09-17T03:43:08.958Z,98.30
2022-09-17T03:43:41.491Z,98.30
2022-09-17T03:44:15.525Z,98.30
2022-09-17T03:44:48.164Z,98.30
2022-09-17T03:45:20.685Z,98.30
2022-09-17T03:45:54.361Z,98.30
2022-09-17T03:46:26.931Z,98.40
2022-09-17T03:46:59.481Z,98.40
2022-09-17T03:47:32.149Z,98.60
2022-09-17T03:48:07.200Z,98.40
2022-09-17T03:48:39.840Z,98.40
2022-09-17T03:49:12.578Z,98.40
2022-09-17T03:49:46.153Z,98.40
2022-09-17T03:50:19.071Z,98.40
2022-09-17T03:50:51.655Z,98.30
2022-09-17T03:51:24.222Z,98.30
2022-09-17T03:51:58.077Z,98.30
2022-09-17T03:52:30.643Z,98.30
2022-09-17T03:53:03.326Z,98.30
2022-09-17T03:53:36.947Z,98.30
2022-09-17T03:54:09.633Z,98.30
2022-09-17T03:54:42.170Z,98.30
2022-09-17T03:55:16.236Z,98.20
2022-09-17T03:55:48.770Z,98.20
2022-09-17T03:56:21.330Z,98.20
2022-09-17T03:56:54.918Z,98.10
2022-09-17T03:57:27.657Z,98.10
2022-09-17T03:58:00.215Z,98.10
2022-09-17T03:58:33.234Z,98.10
2022-09-17T03:59:06.829Z,98.10
2022-09-17T03:59:39.978Z,98.10
2022-09-17T04:00:17.594Z,98.20
2022-09-17T04:00:59.903Z,98.20
2022-09-17T04:01:32.651Z,98.20
2022-09-17T04:02:05.552Z,98.20
2022-09-17T04:02:39.244Z,98.30
2022-09-17T04:03:13.502Z,98.30
2022-09-17T04:03:47.032Z,98.40
2022-09-17T04:04:19.665Z,98.40
2022-09-17T04:04:53.161Z,98.40
2022-09-17T04:05:26.801Z,98.40
2022-09-17T04:05:59.407Z,98.30
2022-09-17T04:06:33.070Z,98.30
2022-09-17T04:07:05.765Z,98.30
2022-09-17T04:07:39.792Z,98.20
2022-09-17T04:08:13.296Z,98.10
2022-09-17T04:08:45.969Z,98.10
2022-09-17T04:09:18.539Z,98.10
2022-09-17T04:09:52.068Z,98.00
2022-09-17T04:10:24.653Z,98.00
2022-09-17T04:10:57.205Z,98.00
2022-09-17T04:11:30.766Z,97.90
2022-09-17T04:12:04.024Z,97.90
2022-09-17T04:12:36.558Z,98.00
2022-09-17T04:13:10.977Z,98.00
2022-09-17T04:13:44.001Z,98.00
2022-09-17T04:14:16.622Z,98.10
2022-09-17T04:14:50.277Z,98.10
2022-09-17T04:15:22.877Z,98.10
2022-09-17T04:15:55.469Z,98.10
2022-09-17T04:16:29.088Z,98.10
2022-09-17T04:17:01.715Z,98.20
2022-09-17T04:17:34.445Z,98.20
2022-09-17T04:18:08.143Z,98.30
2022-09-17T04:18:42.142Z,98.30
2022-09-17T04:19:14.721Z,98.30
2022-09-17T04:19:48.897Z,98.30
2022-09-17T04:20:21.536Z,98.40
2022-09-17T04:20:54.075Z,98.40
2022-09-17T04:21:27.688Z,98.40
2022-09-17T04:22:00.502Z,98.40
2022-09-17T04:22:33.126Z,98.40
2022-09-17T04:23:07.515Z,98.40
2022-09-17T04:23:40.134Z,98.40
2022-09-17T04:24:13.746Z,98.40
2022-09-17T04:24:46.308Z,98.40
2022-09-17T04:25:19.235Z,98.30
2022-09-17T04:25:52.843Z,98.20
2022-09-17T04:26:25.576Z,98.20
2022-09-17T04:26:58.075Z,98.10
2022-09-17T04:27:30.574Z,98.10
2022-09-17T04:28:04.366Z,98.10
2022-09-17T04:28:36.912Z,98.00
2022-09-17T04:29:10.231Z,97.80
2022-09-17T04:29:43.884Z,97.80
2022-09-17T04:30:16.899Z,97.80
2022-09-17T04:30:49.774Z,97.60
2022-09-17T04:31:25.125Z,97.60
2022-09-17T04:31:57.715Z,97.60
2022-09-17T04:32:30.442Z,97.60
2022-09-17T04:33:04.087Z,97.60
2022-09-17T04:33:37.627Z,97.50
2022-09-17T04:34:11.565Z,97.50
2022-09-17T04:34:45.164Z,97.50
2022-09-17T04:35:17.918Z,97.40
2022-09-17T04:35:50.463Z,97.20
2022-09-17T04:36:24.039Z,97.20
2022-09-17T04:36:56.557Z,97.20
2022-09-17T04:37:29.206Z,97.20
2022-09-17T04:38:01.821Z,97.10
2022-09-17T04:38:35.525Z,97.10
2022-09-17T04:39:08.997Z,97.10
2022-09-17T04:39:41.594Z,97.20
2022-09-17T04:40:15.134Z,97.20
2022-09-17T04:40:48.269Z,97.20
2022-09-17T04:41:20.793Z,97.20
2022-09-17T04:41:54.400Z,97.10
2022-09-17T04:42:26.964Z,97.10
2022-09-17T04:43:03.083Z,97.00
2022-09-17T04:43:37.144Z,96.90
2022-09-17T04:44:09.707Z,96.90
2022-09-17T04:44:42.335Z,96.80
2022-09-17T04:45:16.098Z,96.60
2022-09-17T04:45:49.423Z,96.60
2022-09-17T04:46:22.072Z,96.50
2022-09-17T04:46:55.702Z,96.40
2022-09-17T04:47:28.287Z,96.30
2022-09-17T04:48:01.958Z,96.30
2022-09-17T04:48:35.807Z,96.30
2022-09-17T04:49:09.011Z,96.20
2022-09-17T04:49:42.930Z,96.20
2022-09-17T04:50:15.651Z,96.10
2022-09-17T04:50:49.555Z,96.00
2022-09-17T04:51:22.088Z,95.90
2022-09-17T04:51:54.560Z,95.90
2022-09-17T04:52:30.971Z,96.00
2022-09-17T04:53:04.117Z,95.70
2022-09-17T04:53:37.137Z,95.50
2022-09-17T04:54:10.759Z,95.50
2022-09-17T04:54:43.331Z,95.50
2022-09-17T04:55:16.607Z,95.50
2022-09-17T04:55:53.169Z,95.50
2022-09-17T04:56:25.718Z,95.40
2022-09-17T04:56:58.285Z,95.50
2022-09-17T04:57:31.865Z,95.50
2022-09-17T04:58:04.591Z,95.30
2022-09-17T04:58:37.105Z,95.30
2022-09-17T04:59:10.741Z,95.20
2022-09-17T04:59:43.384Z,95.10
2022-09-17T05:00:22.146Z,95.10
2022-09-17T05:00:58.790Z,95.00
2022-09-17T05:01:31.450Z,95.00
2022-09-17T05:02:04.166Z,94.90
2022-09-17T05:02:38.034Z,94.90
2022-09-17T05:03:10.635Z,94.80
2022-09-17T05:03:43.267Z,94.80
2022-09-17T05:04:17.272Z,94.80
2022-09-17T05:04:51.295Z,94.80
2022-09-17T05:05:24.464Z,94.90
2022-09-17T05:05:58.008Z,94.70
2022-09-17T05:06:30.600Z,94.40
2022-09-17T05:07:03.318Z,94.40
2022-09-17T05:07:38.174Z,94.40
2022-09-17T05:08:11.950Z,94.40
2022-09-17T05:08:44.497Z,94.30
2022-09-17T05:09:18.988Z,94.20
2022-09-17T05:09:51.598Z,94.20
2022-09-17T05:10:25.596Z,94.20
2022-09-17T05:10:58.174Z,94.20
2022-09-17T05:11:30.733Z,94.30
2022-09-17T05:12:03.602Z,94.40
2022-09-17T05:12:37.304Z,94.50
2022-09-17T05:13:10.127Z,94.50
2022-09-17T05:13:42.634Z,94.50
2022-09-17T05:14:16.414Z,94.40
2022-09-17T05:14:48.998Z,94.20
2022-09-17T05:15:22.267Z,94.00
2022-09-17T05:15:56.864Z,93.70
2022-09-17T05:16:29.645Z,93.50
2022-09-17T05:17:02.285Z,93.30
2022-09-17T05:17:35.864Z,93.30
2022-09-17T05:18:08.429Z,93.10
2022-09-17T05:18:42.063Z,92.90
2022-09-17T05:19:14.586Z,92.80
2022-09-17T05:19:47.249Z,92.60
2022-09-17T05:20:22.503Z,92.60
2022-09-17T05:20:55.020Z,92.70
2022-09-17T05:21:27.548Z,92.50
2022-09-17T05:22:01.108Z,92.40
2022-09-17T05:22:33.710Z,92.30
2022-09-17T05:23:07.484Z,92.20
2022-09-17T05:23:40.053Z,92.10
2022-09-17T05:24:12.703Z,92.10
2022-09-17T05:24:46.229Z,92.10
2022-09-17T05:25:21.048Z,92.20
2022-09-17T05:25:54.686Z,92.30
2022-09-17T05:26:27.363Z,92.40
2022-09-17T05:26:59.863Z,92.60
2022-09-17T05:27:33.438Z,92.60
2022-09-17T05:28:05.927Z,92.50
2022-09-17T05:28:39.556Z,92.60
2022-09-17T05:29:12.127Z,92.70
2022-09-17T05:29:45.422Z,92.80
2022-09-17T05:30:19.198Z,92.70
2022-09-17T05:30:51.869Z,92.70
2022-09-17T05:31:24.722Z,92.70
2022-09-17T05:31:58.387Z,92.70
2022-09-17T05:32:31.289Z,92.50
2022-09-17T05:33:05.860Z,92.20
2022-09-17T05:33:39.392Z,91.90
2022-09-17T05:34:12.060Z,91.60
2022-09-17T05:34:44.598Z,91.30
2022-09-17T05:35:18.318Z,91.20
2022-09-17T05:35:52.380Z,91.30
2022-09-17T05:36:26.238Z,91.30
2022-09-17T05:36:58.937Z,90.80
2022-09-17T05:37:31.542Z,90.70
2022-09-17T05:38:07.669Z,90.40
2022-09-17T05:38:40.190Z,90.20
2022-09-17T05:39:12.894Z,90.20
2022-09-17T05:39:46.526Z,90.10
2022-09-17T05:40:19.181Z,90.10
2022-09-17T05:40:52.795Z,90.10
2022-09-17T05:41:25.394Z,90.10
2022-09-17T05:41:58.087Z,90.10
2022-09-17T05:42:31.629Z,90.00
2022-09-17T05:43:05.790Z,89.80
2022-09-17T05:43:39.380Z,89.70
2022-09-17T05:44:16.051Z,89.60
2022-09-17T05:44:50.525Z,89.60
2022-09-17T05:45:24.190Z,89.70
2022-09-17T05:45:57.409Z,89.70
2022-09-17T05:46:30.054Z,89.60
2022-09-17T05:47:03.654Z,89.10
2022-09-17T05:47:36.158Z,88.80
2022-09-17T05:48:12.697Z,88.50
2022-09-17T05:48:46.377Z,88.30
2022-09-17T05:49:18.955Z,88.20
2022-09-17T05:49:51.504Z,88.40
2022-09-17T05:50:25.433Z,88.60
2022-09-17T05:50:59.624Z,88.90
2022-09-17T05:51:33.179Z,89.30
2022-09-17T05:52:05.736Z,89.50
2022-09-17T05:52:38.235Z,89.60
2022-09-17T05:53:13.884Z,89.60
2022-09-17T05:53:46.500Z,89.50
2022-09-17T05:54:19.260Z,89.00
2022-09-17T05:54:52.799Z,88.80
2022-09-17T05:55:25.446Z,88.90
2022-09-17T05:55:58.184Z,89.10
2022-09-17T05:56:31.948Z,89.30
2022-09-17T05:57:05.000Z,89.30
2022-09-17T05:57:37.579Z,89.50
2022-09-17T05:58:12.805Z,89.90
2022-09-17T05:58:45.331Z,90.10
2022-09-17T05:59:17.920Z,90.00
2022-09-17T05:59:51.617Z,89.90
2022-09-17T06:00:29.713Z,89.50
2022-09-17T06:01:06.242Z,89.40
2022-09-17T06:01:38.903Z,89.50
2022-09-17T06:02:14.203Z,89.30
2022-09-17T06:02:47.991Z,88.90
2022-09-17T06:03:22.933Z,88.40
2022-09-17T06:03:55.632Z,87.90
2022-09-17T06:04:30.559Z,87.50
2022-09-17T06:05:09.101Z,87.60
2022-09-17T06:05:41.990Z,87.60
2022-09-17T06:06:18.071Z,87.40
2022-09-17T06:06:50.694Z,87.00
2022-09-17T06:07:23.828Z,86.80
2022-09-17T06:07:57.388Z,86.80
2022-09-17T06:08:29.990Z,86.50
2022-09-17T06:09:02.615Z,86.00
2022-09-17T06:09:37.756Z,85.90
2022-09-17T06:10:10.379Z,85.90
2022-09-17T06:10:42.998Z,85.90
2022-09-17T06:11:16.658Z,86.20
2022-09-17T06:11:49.324Z,86.70
2022-09-17T06:12:22.294Z,87.10
2022-09-17T06:12:59.475Z,87.30
2022-09-17T06:13:32.843Z,87.10
2022-09-17T06:14:05.479Z,86.80
2022-09-17T06:14:39.060Z,86.50
2022-09-17T06:15:14.742Z,86.40
2022-09-17T06:15:51.172Z,85.60
2022-09-17T06:16:26.183Z,85.30
2022-09-17T06:16:58.792Z,85.20
2022-09-17T06:17:34.342Z,85.40
2022-09-17T06:18:08.063Z,86.10
2022-09-17T06:18:40.632Z,86.40
2022-09-17T06:19:13.245Z,86.60
2022-09-17T06:19:46.789Z,86.80
2022-09-17T06:20:19.990Z,87.00
2022-09-17T06:20:56.140Z,86.80
2022-09-17T06:21:31.034Z,87.70
2022-09-17T06:22:05.523Z,87.70
2022-09-17T06:22:39.112Z,87.60
2022-09-17T06:23:15.797Z,87.20
2022-09-17T06:23:49.897Z,86.20
2022-09-17T06:24:55.252Z,85.70
2022-09-17T06:26:03.355Z,85.00
2022-09-17T06:26:35.893Z,84.60
2022-09-17T06:27:09.574Z,83.90
